x

Buoy B01 - Western Maine Shelf (44030) Wave Buoy

3:04 - Sat 2nd Aug 2014 All times are EDT. -4 hours from GMT.

  • Sig Wave height 2.0ft
  • Peak Period 6s
  • Wind
    9mph
  • Sea Temp 64°f
  • Aire Temp 64°f
  • Sea Pressure 1021.5mb
  • Buoy B01 - Western Maine Shelf
  • Buoy B01 - Western Maine Shelf

More Historic Weather Station data

Upgrade to MSW Pro to gain access to the past 30 days of data for over 8000 Wavebouys and Weather Stations around the globe.

Join Pro

Comparision Forecast

View Surf forecast
   
sáb 08/02 3:04 2ft 6s 9
mph
1021.5mb 64f 64f
2:04 2.5ft 8s 7
mph
1021.6mb 64f 64f
1:04 2.5ft 8s 7 9 mph 1021.9mb 64f 64f
12:04 2ft 6s 2 4 mph 1022mb 64f 64f
vie 08/01 11:04 2.5ft 8s 4
mph
1021.8mb 64f 65f
10:04 2.5ft 8s 9 11 mph 1022.1mb 64f 66f
9:04 2.5ft 4s 11 13 mph 1021.8mb 64f 67f
8:04 2.5ft 8s 16 18 mph 1021.8mb 64f 66f
7:04 2.5ft 8s 16 18 mph 1021.3mb 64f 69f
6:04 2.5ft 8s 11 13 mph 1021.7mb 64f 67f
5:04 2.5ft 8s 13
mph
1021.4mb 65f 67f
4:04 2.5ft 8s 4 7 mph 1021.3mb 65f 66f
3:04 2.5ft 8s 7 9 mph 1021.4mb 64f 66f
2:04 2.5ft 8s 11 13 mph 1021.8mb 64f 65f
1:04 3ft 8s 11 13 mph 1022.4mb 65f 65f
12:04 2.5ft 8s 7 9 mph 1022.2mb 65f 65f
11:04 2.5ft 8s 4 7 mph 1022.4mb 64f 65f
10:04 2.5ft 8s 7 9 mph 1022.3mb 63f 63f
9:04 2.5ft 8s 7 9 mph 1022.1mb 63f 63f
8:04 2.5ft 8s 9
mph
1022mb 63f 63f
7:04 2.5ft 8s 9
mph
1021.4mb 63f 63f
6:04 2.5ft 8s 11
mph
1020.8mb 63f 63f
5:04 2.5ft 8s 9 11 mph 1020.3mb 63f 64f
4:04 3ft 8s 11 13 mph 1020.2mb 63f 64f
3:04 3.5ft 8s 11 13 mph 1019.9mb 63f 63f
2:04 2.5ft 8s 11 13 mph 1019.9mb 63f 63f
1:04 3ft 8s 9 11 mph 1020mb 63f 64f
12:04 3.5ft 5s 7
mph
1020mb 63f 65f
jue 07/31 11:04 3.5ft 8s 11 13 mph 1019.9mb 63f 64f
10:04 3.5ft 8s 9 11 mph 1019.4mb 63f 65f
9:04 4ft 11s 11
mph
1019.4mb 63f 65f
8:04 4ft 8s 11 18 mph 1018.6mb 63f 67f
6:04 3.5ft 8s 18 20 mph 1017.2mb 64f 67f
5:04 3.5ft 8s 16 20 mph 1017.2mb 64f 66f
4:04 4ft 8s 16 20 mph 1017.5mb 64f 67f
3:04 3.5ft 8s 13 18 mph 1017.5mb 64f 66f
2:04 3.5ft 8s 16 18 mph 1017.5mb 64f 66f
1:04 3ft 8s 11 13 mph 1018.1mb 65f 65f
12:04 3.5ft 8s 11 13 mph 1018.1mb 64f 64f
11:04 3.5ft 8s 7 9 mph 1018.2mb 64f 64f
10:04 3.5ft 11s 7
mph
1018.4mb 64f 63f
9:04 3.5ft 8s 7 9 mph 1018.4mb 64f 63f
8:04 3.5ft 8s 7 9 mph 1018.2mb 63f 63f
7:04 3ft 8s 2 4 mph 1017.6mb 64f 64f
6:04 3ft 8s 4
mph
1017.3mb 64f 62f
5:04 3.5ft 8s 4
mph
1016.7mb 64f 62f
4:04 3ft 8s 2
mph
1016.3mb 64f 63f
3:04 3.5ft 8s 2 4 mph 1016.1mb 65f 63f
2:04 3.5ft 8s 4 7 mph 1015.9mb 65f 64f
1:04 3.5ft 8s 4 7 mph 1015.7mb 65f 64f
12:04 3ft 8s 4
mph
1015.9mb 65f 64f
mié 07/30 11:04 2.5ft 8s 7
mph
1015.9mb 65f 65f
10:04 3.5ft 8s 7 9 mph 1015.9mb 66f 65f
9:04 3ft 8s 9
mph
1015.7mb 66f 65f
8:04 2.5ft 8s 2 4 mph 1015.1mb 66f 65f
7:04 2.5ft 8s 4 7 mph 1015mb 66f 66f
5:04 2.5ft 8s 4
mph
1014.3mb 66f 67f
4:04 2.5ft 8s 4 7 mph 1014.1mb 66f 66f
3:04 3ft 11s 7
mph
1014.1mb 65f 65f
2:04 3.5ft 11s 4 7 mph 1014.3mb 64f 65f
1:04 3ft 8s 4 7 mph 1014.5mb 64f 64f
12:04 3.5ft 8s 4
mph
1014.9mb 64f 64f
11:04 3.5ft 8s 7
mph
1015.1mb 64f 63f
10:04 3ft 8s 7 9 mph 1015mb 63f 62f
9:04 2.5ft 8s 9 11 mph 1014.9mb 63f 61f
8:04 3.5ft 8s 9 11 mph 1014.8mb 63f 61f
7:04 3ft 8s 9
mph
1014.6mb 63f 62f
6:04 3ft 8s 9 11 mph 1014mb 63f 61f
5:04 2.5ft 8s 9 11 mph 1013.5mb 62f 60f
4:04 2.5ft 8s 7 9 mph 1012.9mb 62f 61f
3:04 3ft 8s 2 4 mph 1012.9mb 62f 62f
2:04 3ft 11s 2
mph
1012.9mb 62f 62f
1:04 2.5ft 8s 2
mph
1012.7mb 62f 62f
12:04 3ft 8s 2 4 mph 1012.4mb 63f 62f
mar 07/29 11:04 3.5ft 8s 4
mph
1012.5mb 63f 62f
10:04 3.5ft 8s 4 7 mph 1012.3mb 63f 63f
9:04 3.5ft 8s 7 9 mph 1012mb 63f 64f
8:04 3.5ft 8s 7 9 mph 1011.6mb 63f 64f
7:04 3.5ft 8s 11
mph
1011.2mb 64f 65f
6:04 4ft 11s 11 13 mph 1010.4mb 64f 65f
5:04 3ft 8s 11 13 mph 1009.8mb 64f 65f
4:04 3.5ft 8s 11 16 mph 1009mb 64f 65f
3:04 3.5ft 8s 11 13 mph 1008.4mb 65f 65f
2:04 3.5ft 6s 7
mph
1007.8mb 64f 66f
1:04 3.5ft 8s 2 4 mph 1007.2mb 63f 67f
12:04 3.5ft 11s 4 7 mph 1006.9mb 62f 65f
11:04 4ft 8s 7 9 mph 1006.6mb 62f 64f
10:04 3.5ft 8s 13 18 mph 1006.1mb 62f 64f